Terminal Aerodrome Forecast
Issued by NWS Mt. Holly, NJ

Home | Current Version | Previous Version | Text Only | Print | Product List | Glossary On
Versions: 1 2 3 4 5 6 7 8 9 10 11 12 13 14 15 16 17 18 19 20
000
FTUS41 KPHI 311720
TAFRDG
TAF
KRDG 311720Z 3118/0118 VRB04KT P6SM FEW050
     FM312300 25003KT P6SM SKC
     FM010100 00000KT P6SM SKC
      TEMPO 0107/0111 4SM BR
     FM011400 12005KT P6SM BKN250=

USA.gov is the U.S. government's official web portal to all federal, state and local government web resources and services.